Time;durP1;ratioP1;P1;durP2;ratioP2;P2;SDS_P1;SDS_P2;PMS_P1;PMS_P2;Temp;Humidity;BMP_temperature;BMP_pressure;BME280_temperature;BME280_humidity;BME280_pressure;Samples;Min_cycle;Max_cycle;Signal;HPM_P1;HPM_P2
2021/03/07 00:00:16;;;;;;;15.75;6.92;;;;;;;1.41;64.41;100790.34;1732090;82;25823;-63
2021/03/07 00:02:52;;;;;;;17.20;8.93;;;;;;;1.48;64.55;100797.72;1767493;78;34830;-66
2021/03/07 00:05:20;;;;;;;13.28;7.53;;;;;;;1.46;64.65;100796.31;1760156;81;25481;-65
2021/03/07 00:07:49;;;;;;;12.63;7.22;;;;;;;1.47;64.78;100789.95;1759416;81;26927;-66
2021/03/07 00:10:19;;;;;;;13.15;6.78;;;;;;;1.47;64.68;100781.95;1759982;81;25789;-64
2021/03/07 00:12:49;;;;;;;8.95;5.92;;;;;;;1.47;64.78;100795.28;1760957;81;25566;-65
2021/03/07 00:15:19;;;;;;;12.18;6.22;;;;;;;1.47;64.90;100774.75;1760415;81;25616;-65
2021/03/07 00:17:48;;;;;;;15.50;6.95;;;;;;;1.46;64.68;100775.81;1760097;81;25645;-66
2021/03/07 00:20:19;;;;;;;11.17;6.73;;;;;;;1.46;64.60;100778.48;1760432;81;25917;-65
2021/03/07 00:22:46;;;;;;;12.18;6.45;;;;;;;1.47;64.71;100774.75;1760078;81;25703;-65
2021/03/07 00:25:16;;;;;;;10.93;6.60;;;;;;;1.46;64.52;100783.81;1760193;81;25669;-65
2021/03/07 00:27:45;;;;;;;10.53;6.83;;;;;;;1.48;64.68;100771.55;1760069;81;25646;-66
2021/03/07 00:30:15;;;;;;;12.43;7.03;;;;;;;1.47;64.58;100762.75;1760468;81;25726;-65
2021/03/07 00:32:44;;;;;;;9.98;5.42;;;;;;;1.49;64.39;100766.52;1760274;81;26656;-65
2021/03/07 00:35:13;;;;;;;10.30;5.70;;;;;;;1.51;64.65;100775.63;1760324;81;25978;-65
2021/03/07 00:37:41;;;;;;;12.00;5.90;;;;;;;1.50;64.79;100749.49;1760383;81;25579;-65
2021/03/07 00:40:11;;;;;;;10.38;5.45;;;;;;;1.51;64.53;100752.42;1760120;81;25606;-67
2021/03/07 00:42:47;;;;;;;12.58;6.95;;;;;;;1.52;64.57;100744.73;1760267;81;25771;-65
2021/03/07 00:45:17;;;;;;;9.88;6.12;;;;;;;1.53;64.57;100741.52;1759778;81;26395;-65
2021/03/07 00:47:45;;;;;;;12.85;6.03;;;;;;;1.54;64.54;100739.95;1759970;81;25717;-66
2021/03/07 00:50:15;;;;;;;9.30;5.83;;;;;;;1.55;64.93;100731.42;1759263;81;25743;-64
2021/03/07 00:52:42;;;;;;;9.28;5.83;;;;;;;1.55;64.70;100728.26;1764452;80;25661;-65
2021/03/07 00:55:10;;;;;;;14.25;6.35;;;;;;;1.57;64.83;100734.69;1765776;81;25790;-67
2021/03/07 00:57:37;;;;;;;10.98;5.53;;;;;;;1.56;64.85;100735.19;1765347;81;25917;-65
2021/03/07 01:00:14;;;;;;;11.33;5.90;;;;;;;1.56;65.07;100723.19;1765850;81;25677;-66
2021/03/07 01:02:41;;;;;;;11.18;6.20;;;;;;;1.56;65.02;100731.72;1765568;81;25638;-66
2021/03/07 01:05:10;;;;;;;9.65;6.05;;;;;;;1.57;65.21;100718.69;1765818;81;25652;-66
2021/03/07 01:07:37;;;;;;;7.37;4.45;;;;;;;1.55;65.17;100720.26;1766008;81;25734;-64
2021/03/07 01:10:13;;;;;;;11.65;7.25;;;;;;;1.57;65.46;100710.69;1765823;81;26252;-66
2021/03/07 01:12:42;;;;;;;14.30;6.60;;;;;;;1.56;65.55;100701.86;1765577;81;25729;-66
2021/03/07 01:15:10;;;;;;;10.35;6.00;;;;;;;1.57;66.15;100688.03;1765541;81;25665;-65
2021/03/07 01:17:39;;;;;;;17.20;6.62;;;;;;;1.57;66.54;100692.03;1765197;81;25621;-65
2021/03/07 01:20:12;;;;;;;16.62;6.67;;;;;;;1.57;66.57;100686.69;1765375;81;25836;-65
2021/03/07 01:22:39;;;;;;;13.70;6.75;;;;;;;1.58;66.26;100678.96;1764871;81;25805;-65
2021/03/07 01:25:08;;;;;;;11.38;6.70;;;;;;;1.58;66.25;100678.42;1765251;81;25732;-65
2021/03/07 01:27:36;;;;;;;11.50;6.95;;;;;;;1.59;66.62;100668.06;1765373;81;25605;-65
2021/03/07 01:30:09;;;;;;;12.58;6.72;;;;;;;1.59;67.10;100665.39;1765256;81;25697;-65
2021/03/07 01:32:37;;;;;;;10.08;6.42;;;;;;;1.60;66.69;100664.86;1765242;81;25692;-65
2021/03/07 01:35:06;;;;;;;11.63;7.25;;;;;;;1.60;67.31;100657.69;1765344;81;25715;-66
2021/03/07 01:37:33;;;;;;;12.23;6.72;;;;;;;1.60;67.73;100655.52;1765332;81;25693;-66
2021/03/07 01:40:01;;;;;;;13.95;6.42;;;;;;;1.61;67.30;100656.63;1765197;81;25613;-66
2021/03/07 01:42:28;;;;;;;13.40;6.62;;;;;;;1.63;67.70;100655.05;1765112;81;25721;-66
2021/03/07 01:44:55;;;;;;;11.97;6.22;;;;;;;1.58;67.54;100625.09;1765201;81;25585;-66
2021/03/07 01:47:32;;;;;;;12.98;7.10;;;;;;;1.63;67.46;100630.52;1765162;81;25941;-66
2021/03/07 01:50:01;;;;;;;13.78;6.80;;;;;;;1.64;67.58;100625.48;1765229;81;26011;-65
2021/03/07 01:52:28;;;;;;;13.57;7.03;;;;;;;1.64;67.57;100633.48;1765557;81;25609;-65
2021/03/07 01:54:56;;;;;;;12.82;7.22;;;;;;;1.65;67.61;100626.28;1765122;81;25630;-66
2021/03/07 01:57:25;;;;;;;13.28;6.00;;;;;;;1.64;68.78;100598.81;1762968;80;25653;-64
2021/03/07 01:59:56;;;;;;;11.35;7.17;;;;;;;1.66;68.10;100606.58;1759526;81;26753;-66
2021/03/07 02:02:24;;;;;;;12.65;7.12;;;;;;;1.66;68.28;100602.58;1758818;81;25559;-65
2021/03/07 02:04:53;;;;;;;14.80;7.55;;;;;;;1.66;68.15;100607.91;1759224;81;25690;-64
2021/03/07 02:07:21;;;;;;;11.75;6.75;;;;;;;1.67;68.31;100603.67;1759497;81;25645;-65
2021/03/07 02:09:50;;;;;;;12.18;6.75;;;;;;;1.68;68.45;100605.27;1759515;81;25618;-65
2021/03/07 02:12:20;;;;;;;12.58;7.53;;;;;;;1.69;68.16;100604.77;1759551;81;25720;-65
2021/03/07 02:14:51;;;;;;;9.60;6.62;;;;;;;1.71;68.84;100609.33;1756685;81;25714;-64
2021/03/07 02:17:20;;;;;;;11.45;7.30;;;;;;;1.71;68.54;100609.86;1759620;81;25737;-64
2021/03/07 02:19:49;;;;;;;12.98;7.12;;;;;;;1.72;68.53;100608.79;1760371;81;25673;-64
2021/03/07 02:22:27;;;;;;;14.03;7.40;;;;;;;1.72;68.61;100608.28;1759174;81;25603;-64
2021/03/07 02:24:54;;;;;;;12.63;7.92;;;;;;;1.71;68.48;100609.33;1760250;81;25806;-64
2021/03/07 02:27:22;;;;;;;15.83;8.00;;;;;;;1.72;68.65;100614.13;1760491;81;25561;-64
2021/03/07 02:29:50;;;;;;;14.98;8.30;;;;;;;1.71;68.80;100601.33;1760557;81;25724;-65
2021/03/07 02:32:24;;;;;;;15.13;8.90;;;;;;;1.72;69.57;100574.12;1760503;81;25538;-64
2021/03/07 02:35:08;;;;;;;16.65;9.05;;;;;;;1.72;69.09;100589.62;1760638;81;25500;-65
2021/03/07 02:37:39;;;;;;;14.38;9.25;;;;;;;1.72;69.43;100586.13;1759925;81;25902;-65
2021/03/07 02:40:09;;;;;;;14.55;8.25;;;;;;;1.72;69.65;100566.95;1760459;81;25321;-64
2021/03/07 02:42:39;;;;;;;15.55;8.85;;;;;;;1.73;70.39;100568.55;1733362;81;25384;-63
2021/03/07 02:45:11;;;;;;;13.93;9.15;;;;;;;1.73;69.89;100572.55;1760487;81;25531;-64
2021/03/07 02:47:43;;;;;;;12.80;8.65;;;;;;;1.74;69.45;100576.02;1760615;81;25658;-64
2021/03/07 02:50:14;;;;;;;16.10;9.18;;;;;;;1.74;69.66;100566.17;1760496;81;25709;-64
2021/03/07 02:52:50;;;;;;;13.65;9.18;;;;;;;1.74;69.74;100562.67;1760511;81;25549;-64
2021/03/07 02:55:18;;;;;;;14.93;8.95;;;;;;;1.73;69.57;100564.55;1760484;81;25546;-64
2021/03/07 02:57:47;;;;;;;14.13;9.38;;;;;;;1.76;70.12;100537.93;1760514;81;25489;-64
2021/03/07 03:00:17;;;;;;;15.87;9.73;;;;;;;1.75;70.36;100554.44;1760807;81;25655;-65
2021/03/07 03:02:46;;;;;;;16.10;8.80;;;;;;;1.75;69.91;100549.09;1762211;81;25786;-65
2021/03/07 03:05:14;;;;;;;15.28;9.45;;;;;;;1.75;69.73;100541.10;1763641;81;25565;-65
2021/03/07 03:07:43;;;;;;;15.15;8.95;;;;;;;1.76;69.93;100553.39;1763565;81;25596;-65
2021/03/07 03:10:13;;;;;;;12.95;6.65;;;;;;;1.76;70.52;100536.59;1763807;81;25572;-65
2021/03/07 03:12:43;;;;;;;15.23;8.63;;;;;;;1.75;69.78;100537.09;1763522;81;25514;-65
2021/03/07 03:15:12;;;;;;;12.35;7.95;;;;;;;1.76;69.62;100536.59;1763399;81;25781;-65
2021/03/07 03:17:41;;;;;;;19.20;9.38;;;;;;;1.76;69.83;100525.39;1763593;81;34806;-65
2021/03/07 03:20:14;;;;;;;17.25;8.58;;;;;;;1.75;70.43;100542.43;1763447;81;25424;-64
2021/03/07 03:22:42;;;;;;;13.98;8.73;;;;;;;1.75;69.68;100527.77;1762319;81;25508;-65
2021/03/07 03:25:11;;;;;;;14.70;7.97;;;;;;;1.75;69.96;100535.77;1763815;81;25361;-64
2021/03/07 03:27:38;;;;;;;12.23;7.57;;;;;;;1.77;69.64;100527.02;1763635;81;26718;-64
2021/03/07 03:30:13;;;;;;;14.05;7.72;;;;;;;1.77;69.54;100527.02;1763426;81;25397;-64
2021/03/07 03:32:41;;;;;;;14.28;7.70;;;;;;;1.78;69.47;100541.16;1763477;81;25353;-64
2021/03/07 03:35:11;;;;;;;12.00;6.85;;;;;;;1.78;69.73;100507.28;1763395;81;25389;-64
2021/03/07 03:37:41;;;;;;;12.98;7.12;;;;;;;1.79;69.59;100498.77;1763463;81;25489;-64
2021/03/07 03:40:12;;;;;;;13.83;7.12;;;;;;;1.79;69.73;100499.56;1763471;81;28062;-64
2021/03/07 03:42:41;;;;;;;13.98;7.28;;;;;;;1.79;69.83;100492.10;1763275;81;25474;-63
2021/03/07 03:45:11;;;;;;;12.53;7.30;;;;;;;1.80;69.46;100509.17;1763544;81;25621;-64
2021/03/07 03:47:42;;;;;;;11.78;7.78;;;;;;;1.80;69.49;100493.70;1763399;81;25565;-64
2021/03/07 03:50:13;;;;;;;11.22;6.90;;;;;;;1.80;69.56;100491.83;1763544;81;25542;-64
2021/03/07 03:52:41;;;;;;;11.63;6.75;;;;;;;1.81;69.40;100487.33;1763452;81;25786;-64
2021/03/07 03:55:16;;;;;;;9.60;6.70;;;;;;;1.81;69.41;100483.32;1763308;81;25310;-64
2021/03/07 03:57:45;;;;;;;12.55;7.05;;;;;;;1.81;69.24;100474.78;1763544;81;25756;-64
2021/03/07 04:00:18;;;;;;;8.85;6.33;;;;;;;1.83;69.16;100478.55;1763727;81;25496;-64
2021/03/07 04:02:47;;;;;;;9.63;6.95;;;;;;;1.91;69.07;100511.47;1761862;81;25370;-64
2021/03/07 04:05:17;;;;;;;14.07;6.97;;;;;;;1.84;68.88;100483.64;1760527;81;25774;-64
2021/03/07 04:07:46;;;;;;;11.80;6.15;;;;;;;1.87;68.80;100470.31;1760450;81;25591;-64
2021/03/07 04:10:17;;;;;;;12.33;7.37;;;;;;;1.88;68.79;100461.27;1760581;81;25685;-64
2021/03/07 04:12:48;;;;;;;15.08;6.17;;;;;;;1.88;68.67;100474.61;1760449;81;25601;-65
2021/03/07 04:15:18;;;;;;;11.60;6.62;;;;;;;1.88;68.66;100463.94;1760417;81;25287;-65
2021/03/07 04:17:49;;;;;;;11.18;6.30;;;;;;;1.89;68.63;100460.23;1760379;81;25708;-64
2021/03/07 04:20:17;;;;;;;8.53;6.10;;;;;;;1.89;68.73;100472.23;1760352;81;25509;-64
2021/03/07 04:22:44;;;;;;;11.35;6.75;;;;;;;1.90;69.07;100450.36;1760439;81;25762;-64
2021/03/07 04:25:12;;;;;;;10.93;7.00;;;;;;;1.90;68.88;100466.36;1760354;81;25786;-64
2021/03/07 04:27:40;;;;;;;11.83;7.00;;;;;;;1.90;69.07;100452.48;1760395;81;25391;-64
2021/03/07 04:30:08;;;;;;;11.57;7.47;;;;;;;1.90;69.22;100462.36;1760439;81;25794;-64
2021/03/07 04:32:36;;;;;;;11.95;7.17;;;;;;;1.90;69.13;100442.36;1760370;81;25323;-64
2021/03/07 04:35:05;;;;;;;11.57;7.08;;;;;;;1.88;69.15;100423.93;1760429;81;25387;-64
2021/03/07 04:37:33;;;;;;;8.33;6.78;;;;;;;1.89;69.12;100434.89;1760532;81;25414;-64
2021/03/07 04:40:00;;;;;;;11.48;7.35;;;;;;;1.90;68.99;100429.02;1760453;81;25350;-64
2021/03/07 04:42:29;;;;;;;11.38;7.42;;;;;;;1.89;69.47;100456.23;1760413;81;25798;-64
2021/03/07 04:44:55;;;;;;;11.08;7.47;;;;;;;1.90;69.10;100428.48;1760331;81;25665;-64
2021/03/07 04:47:22;;;;;;;9.78;6.83;;;;;;;1.91;69.04;100423.44;1760421;81;25480;-65
2021/03/07 04:49:49;;;;;;;13.13;6.83;;;;;;;1.90;69.21;100433.81;1760687;81;25546;-64
2021/03/07 04:52:16;;;;;;;9.78;6.85;;;;;;;1.91;69.28;100427.44;1760584;81;25645;-64
2021/03/07 04:54:43;;;;;;;13.35;5.90;;;;;;;1.91;69.05;100419.44;1760575;81;25813;-64
2021/03/07 04:57:10;;;;;;;10.38;6.70;;;;;;;1.91;69.19;100416.77;1760547;81;25788;-65
2021/03/07 04:59:37;;;;;;;10.10;7.03;;;;;;;1.93;69.04;100423.98;1760518;81;25369;-65
2021/03/07 05:02:05;;;;;;;12.23;6.72;;;;;;;1.93;69.06;100419.19;1760429;81;25406;-65
2021/03/07 05:04:31;;;;;;;8.53;6.20;;;;;;;1.94;69.04;100420.28;1760648;81;25404;-64
2021/03/07 05:07:01;;;;;;;8.88;7.05;;;;;;;1.96;69.16;100416.00;1760547;81;25795;-64
2021/03/07 05:09:28;;;;;;;11.22;6.85;;;;;;;1.96;69.06;100424.00;1760432;81;25331;-64
2021/03/07 05:11:56;;;;;;;12.18;6.72;;;;;;;1.96;68.99;100416.00;1760516;81;25635;-64
2021/03/07 05:14:23;;;;;;;9.45;6.22;;;;;;;1.96;68.91;100428.01;1760610;81;25679;-64
2021/03/07 05:16:50;;;;;;;9.95;6.70;;;;;;;1.96;68.86;100418.67;1760555;81;25721;-64
2021/03/07 05:19:17;;;;;;;7.80;6.00;;;;;;;1.97;68.88;100418.96;1760480;81;25828;-64
2021/03/07 05:21:45;;;;;;;11.95;6.83;;;;;;;1.96;68.94;100419.50;1760479;81;25698;-64
2021/03/07 05:24:12;;;;;;;10.55;7.10;;;;;;;1.98;68.85;100412.58;1760458;81;25613;-64
2021/03/07 05:26:41;;;;;;;11.90;7.03;;;;;;;1.98;68.88;100407.25;1760371;81;25314;-64
2021/03/07 05:29:08;;;;;;;8.88;5.97;;;;;;;1.99;68.88;100409.67;1760739;81;25495;-64
2021/03/07 05:31:35;;;;;;;8.83;6.05;;;;;;;1.99;68.86;100413.67;1760555;81;25983;-64
2021/03/07 05:34:02;;;;;;;9.30;6.70;;;;;;;1.97;68.83;100406.42;1760519;81;25393;-64
2021/03/07 05:36:29;;;;;;;9.73;6.50;;;;;;;1.99;68.75;100403.50;1760625;81;25312;-65
2021/03/07 05:38:56;;;;;;;9.53;5.97;;;;;;;1.98;68.78;100432.59;1760569;81;25495;-64
2021/03/07 05:41:23;;;;;;;15.43;7.15;;;;;;;1.99;68.67;100395.50;1760478;81;25477;-64
2021/03/07 05:43:50;;;;;;;10.13;5.97;;;;;;;1.98;68.54;100400.05;1760444;81;25872;-64
2021/03/07 05:46:18;;;;;;;11.40;6.97;;;;;;;1.99;68.55;100401.67;1760429;81;25362;-64
2021/03/07 05:48:44;;;;;;;7.40;5.35;;;;;;;2.00;68.52;100401.92;1760489;81;25618;-64
2021/03/07 05:51:16;;;;;;;8.73;6.05;;;;;;;2.01;68.38;100396.87;1760394;81;25318;-65
2021/03/07 05:53:48;;;;;;;11.60;6.33;;;;;;;2.00;68.36;100399.26;1760599;81;26369;-64
2021/03/07 05:56:15;;;;;;;8.70;5.87;;;;;;;2.02;68.26;100405.68;1760626;81;26701;-63
2021/03/07 05:58:43;;;;;;;8.20;6.60;;;;;;;2.01;68.18;100402.22;1760533;81;25383;-63
2021/03/07 06:01:09;;;;;;;8.83;5.83;;;;;;;2.02;68.05;100405.14;1760566;81;25559;-65
2021/03/07 06:03:36;;;;;;;10.70;6.20;;;;;;;2.04;68.01;100402.23;1741221;81;25337;-64
2021/03/07 06:06:03;;;;;;;7.97;6.37;;;;;;;2.05;67.93;100401.98;1722593;83;25545;-64
2021/03/07 06:08:32;;;;;;;9.05;6.47;;;;;;;2.05;67.80;100395.84;1722432;82;26087;-64
2021/03/07 06:11:01;;;;;;;12.30;6.50;;;;;;;2.04;67.64;100400.39;1722814;83;25391;-64
2021/03/07 06:13:43;;;;;;;9.35;6.22;;;;;;;2.06;67.52;100393.47;1722642;83;25574;-65
2021/03/07 06:16:12;;;;;;;10.65;6.25;;;;;;;2.08;67.37;100402.53;1722419;83;25340;-65
2021/03/07 06:18:43;;;;;;;;;;;;;;;2.08;67.14;100388.69;1725014;83;25356;-65
2021/03/07 06:21:32;;;;;;;7.35;5.50;;;;;;;2.10;67.31;100392.44;1722211;83;25866;-65
2021/03/07 06:24:01;;;;;;;9.05;6.03;;;;;;;2.10;67.06;100397.78;1722348;82;25631;-65
2021/03/07 06:26:28;;;;;;;7.70;5.65;;;;;;;2.10;67.01;100378.56;1722619;83;25391;-65
2021/03/07 06:29:09;;;;;;;13.00;5.83;;;;;;;2.12;66.92;100388.99;1722499;83;25631;-65
2021/03/07 06:31:42;;;;;;;6.92;5.37;;;;;;;2.13;66.87;100391.41;1720015;83;25684;-65
2021/03/07 06:34:08;;;;;;;7.97;5.03;;;;;;;2.13;66.70;100376.73;1722540;83;25713;-65
2021/03/07 06:36:37;;;;;;;8.03;5.90;;;;;;;2.16;66.64;100380.75;1722389;83;25579;-63
2021/03/07 06:39:07;;;;;;;9.30;5.75;;;;;;;2.16;66.28;100387.42;1722526;83;25311;-63
2021/03/07 06:41:35;;;;;;;6.67;5.35;;;;;;;2.13;66.20;100382.58;1722475;82;25570;-63
2021/03/07 06:44:14;;;;;;;10.05;6.03;;;;;;;2.16;66.49;100386.91;1722415;83;25390;-64
2021/03/07 06:46:45;;;;;;;7.33;4.95;;;;;;;2.15;66.39;100388.50;1722588;82;25968;-64
2021/03/07 06:49:27;;;;;;;9.13;5.30;;;;;;;2.15;66.33;100385.29;1722422;83;25528;-64
2021/03/07 06:52:02;;;;;;;9.65;5.55;;;;;;;2.17;66.17;100386.37;1722400;83;25497;-65
2021/03/07 06:54:28;;;;;;;7.30;5.05;;;;;;;2.17;66.20;100375.16;1719397;83;25620;-65
2021/03/07 06:56:56;;;;;;;7.20;5.15;;;;;;;2.19;66.14;100370.91;1722573;83;25376;-65
2021/03/07 06:59:24;;;;;;;5.65;4.72;;;;;;;2.19;65.65;100381.05;1722439;82;26189;-65
2021/03/07 07:01:54;;;;;;;7.78;4.78;;;;;;;2.19;65.09;100382.92;1722415;82;25610;-64
2021/03/07 07:04:23;;;;;;;9.58;4.75;;;;;;;2.20;65.30;100380.55;1722439;81;25403;-64
2021/03/07 07:07:12;;;;;;;5.97;4.50;;;;;;;2.21;64.33;100380.80;1722740;83;25652;-64
2021/03/07 07:09:41;;;;;;;7.50;4.30;;;;;;;2.21;64.47;100370.95;1722628;83;25411;-65
2021/03/07 07:12:24;;;;;;;6.67;3.70;;;;;;;2.21;63.61;100374.95;1722772;83;26672;-65
2021/03/07 07:14:58;;;;;;;6.53;4.55;;;;;;;2.22;63.60;100363.75;1721584;83;25367;-66
2021/03/07 07:17:25;;;;;;;7.58;4.40;;;;;;;2.24;64.09;100371.77;1715870;83;25513;-66
2021/03/07 07:19:52;;;;;;;7.20;4.28;;;;;;;2.25;64.19;100360.58;1722428;83;25401;-65
2021/03/07 07:22:19;;;;;;;6.65;4.83;;;;;;;2.27;64.06;100363.00;1722425;83;25718;-66
2021/03/07 07:24:46;;;;;;;6.40;5.00;;;;;;;2.26;63.97;100362.71;1722561;81;25716;-65
2021/03/07 07:27:13;;;;;;;5.50;4.62;;;;;;;2.26;64.16;100358.70;1722325;82;25659;-65
2021/03/07 07:29:40;;;;;;;10.38;6.25;;;;;;;2.24;63.99;100363.75;1722425;82;25299;-65
2021/03/07 07:32:13;;;;;;;12.25;5.17;;;;;;;2.25;64.36;100360.58;1722322;83;25565;-65
2021/03/07 07:34:52;;;;;;;8.38;5.40;;;;;;;2.24;64.28;100349.61;1736418;81;25618;-66
2021/03/07 07:37:44;;;;;;;8.93;4.90;;;;;;;2.24;64.33;100357.62;1743902;81;25733;-66
2021/03/07 07:40:43;;;;;;;6.40;4.83;;;;;;;2.22;64.52;100355.20;1660330;86;25738;-65
2021/03/07 07:43:11;;;;;;;8.40;4.40;;;;;;;2.21;64.46;100347.44;1660451;86;25679;-65
2021/03/07 07:45:39;;;;;;;10.00;5.75;;;;;;;2.19;64.38;100347.69;1661110;86;25426;-65
2021/03/07 07:48:08;;;;;;;9.28;5.55;;;;;;;2.18;64.35;100355.95;1659352;85;25696;-66
2021/03/07 07:50:37;;;;;;;6.10;4.42;;;;;;;2.17;64.53;100344.47;1662234;84;25717;-65
2021/03/07 07:53:08;;;;;;;7.40;4.08;;;;;;;2.17;64.42;100353.02;1660539;85;25698;-67
2021/03/07 07:55:53;;;;;;;7.42;4.30;;;;;;;2.17;64.18;100349.02;1661992;86;25602;-66
2021/03/07 07:58:42;;;;;;;9.10;4.58;;;;;;;2.17;63.82;100340.47;1662104;86;25997;-65
2021/03/07 08:01:15;;;;;;;5.92;3.70;;;;;;;2.17;63.69;100341.80;1659893;86;25396;-65
2021/03/07 08:03:44;;;;;;;5.90;4.05;;;;;;;2.18;63.99;100345.27;1662232;86;25852;-66
2021/03/07 08:06:14;;;;;;;6.03;4.40;;;;;;;2.18;63.79;100335.93;1661881;86;25546;-65
2021/03/07 08:08:44;;;;;;;5.50;4.10;;;;;;;2.17;63.22;100340.47;1660991;86;25765;-68
2021/03/07 08:11:20;;;;;;;6.03;4.75;;;;;;;2.18;63.09;100334.09;1661474;86;25687;-65
2021/03/07 08:13:59;;;;;;;6.97;4.05;;;;;;;2.26;63.12;100350.16;1798008;77;35193;-66
2021/03/07 08:16:44;;;;;;;4.58;3.85;;;;;;;2.18;62.18;100359.95;1775122;80;25437;-64
2021/03/07 08:19:21;;;;;;;7.83;4.22;;;;;;;2.17;62.25;100343.14;1772366;80;25768;-64
2021/03/07 08:22:06;;;;;;;9.75;4.97;;;;;;;2.17;62.44;100339.67;1764217;80;25816;-66
2021/03/07 08:24:55;;;;;;;6.72;4.83;;;;;;;2.16;62.32;100340.72;1709326;83;25644;-65
2021/03/07 08:27:36;;;;;;;;;;;;;;;2.17;62.36;100331.13;1719160;82;25656;-66
2021/03/07 08:30:06;;;;;;;;;;;;;;;2.17;62.11;100342.34;1718762;82;25569;-70
2021/03/07 08:32:39;;;;;;;7.08;4.65;;;;;;;2.14;61.57;100312.95;1773296;79;26050;-65
2021/03/07 08:35:25;;;;;;;8.48;5.42;;;;;;;2.12;61.46;100322.28;1689083;84;25419;-66
2021/03/07 08:38:14;;;;;;;7.97;6.22;;;;;;;2.12;61.98;100327.08;1700323;84;25635;-67
2021/03/07 08:40:56;;;;;;;6.70;3.92;;;;;;;2.12;61.74;100328.41;1728122;81;25500;-69
2021/03/07 08:43:31;;;;;;;5.62;4.40;;;;;;;2.16;61.90;100326.87;1722596;81;25647;-69
2021/03/07 08:46:11;;;;;;;8.08;4.55;;;;;;;2.16;61.23;100330.05;1717586;82;25744;-68
2021/03/07 08:48:47;;;;;;;6.78;4.62;;;;;;;2.13;61.13;100310.02;1729456;82;25595;-69
2021/03/07 08:51:18;;;;;;;10.00;4.35;;;;;;;2.13;61.67;100325.20;1728903;82;25564;-68
2021/03/07 08:53:47;;;;;;;6.53;4.25;;;;;;;2.12;61.29;100316.41;1729328;82;25525;-68
2021/03/07 08:56:15;;;;;;;5.85;4.40;;;;;;;2.12;61.64;100327.61;1729572;82;25649;-69
2021/03/07 08:58:46;;;;;;;8.65;4.03;;;;;;;2.11;61.25;100312.65;1729482;82;25719;-69
2021/03/07 09:01:14;;;;;;;8.40;4.67;;;;;;;2.10;61.58;100324.40;1728966;82;25335;-69
2021/03/07 09:03:41;;;;;;;6.12;4.25;;;;;;;2.10;61.67;100328.41;1729383;82;25691;-68
2021/03/07 09:06:13;;;;;;;8.58;4.15;;;;;;;2.10;61.65;100307.05;1729433;82;25696;-70
2021/03/07 09:08:40;;;;;;;7.62;4.08;;;;;;;2.08;61.42;100314.48;1729554;82;25702;-69
2021/03/07 09:11:09;;;;;;;7.30;4.05;;;;;;;2.04;61.18;100320.34;1729343;82;26188;-69
2021/03/07 09:13:51;;;;;;;6.08;4.25;;;;;;;2.04;61.64;100315.01;1726043;82;25650;-67
2021/03/07 09:16:18;;;;;;;7.58;4.05;;;;;;;2.01;61.40;100322.17;1731327;81;25755;-69
2021/03/07 09:18:47;;;;;;;7.25;4.10;;;;;;;2.03;61.76;100312.59;1712038;81;25683;-69
2021/03/07 09:21:17;;;;;;;5.45;4.28;;;;;;;2.02;61.63;100315.77;1711432;83;25513;-68
2021/03/07 09:23:48;;;;;;;7.40;3.85;;;;;;;1.99;61.10;100314.95;1710694;83;25972;-68
2021/03/07 09:26:19;;;;;;;10.08;4.42;;;;;;;1.98;61.24;100317.88;1710115;83;25641;-69
2021/03/07 09:28:52;;;;;;;10.48;4.00;;;;;;;1.95;61.03;100319.16;1710115;83;25671;-69
2021/03/07 09:31:23;;;;;;;11.45;4.25;;;;;;;1.93;60.98;100317.81;1710112;82;25625;-69
2021/03/07 09:33:54;;;;;;;9.18;3.85;;;;;;;1.91;61.02;100315.39;1710012;83;25373;-68
2021/03/07 09:36:26;;;;;;;7.75;4.65;;;;;;;1.90;61.17;100312.44;1709044;82;25788;-69
2021/03/07 09:39:07;;;;;;;8.33;4.70;;;;;;;1.91;61.30;100310.57;1709242;83;25691;-68
2021/03/07 09:41:44;;;;;;;7.83;3.60;;;;;;;1.89;61.20;100301.52;1709231;82;25696;-70
2021/03/07 09:44:20;;;;;;;6.92;4.40;;;;;;;1.86;61.10;100317.47;1709283;83;26210;-68
2021/03/07 09:46:52;;;;;;;13.65;4.70;;;;;;;1.83;61.37;100305.97;1716047;81;25711;-68
2021/03/07 09:49:27;;;;;;;8.03;4.50;;;;;;;1.84;61.60;100306.25;1738675;82;25923;-64
2021/03/07 09:51:55;;;;;;;7.62;4.42;;;;;;;1.82;61.62;100301.70;1738603;82;25702;-61
2021/03/07 09:54:25;;;;;;;8.08;4.20;;;;;;;1.82;61.63;100300.38;1738758;81;25811;-62
2021/03/07 09:56:55;;;;;;;8.25;4.87;;;;;;;1.83;61.77;100297.16;1738890;82;25734;-61
2021/03/07 09:59:32;;;;;;;8.13;4.35;;;;;;;1.84;61.86;100298.79;1738757;81;25643;-69
2021/03/07 10:02:03;;;;;;;9.28;4.78;;;;;;;1.83;61.56;100300.63;1738650;82;25766;-74
2021/03/07 10:27:30;;;;;;;8.98;5.08;;;;;;;1.88;61.89;100289.75;1714033;79;26885;-72
2021/03/07 10:29:57;;;;;;;8.38;5.25;;;;;;;1.89;62.03;100294.02;1720279;83;25741;-73
2021/03/07 10:32:24;;;;;;;6.97;5.03;;;;;;;1.89;61.92;100290.84;1720038;83;25763;-70
2021/03/07 10:34:54;;;;;;;11.73;5.72;;;;;;;1.88;62.05;100294.55;1720242;83;25668;-69
2021/03/07 10:37:43;;;;;;;11.57;5.37;;;;;;;1.88;62.17;100271.88;1720151;83;25669;-68
2021/03/07 10:40:13;;;;;;;12.30;6.62;;;;;;;1.88;62.21;100288.42;1720266;83;25689;-70
2021/03/07 10:42:44;;;;;;;;;;;;;;;1.85;62.37;100291.05;1722824;83;25785;-68
2021/03/07 10:45:18;;;;;;;10.50;5.30;;;;;;;1.84;62.47;100271.58;1720252;83;25646;-67
2021/03/07 10:48:07;;;;;;;9.18;4.97;;;;;;;1.82;62.71;100263.03;1720223;83;25787;-68
2021/03/07 10:50:37;;;;;;;10.72;5.75;;;;;;;1.85;62.85;100271.04;1720070;83;25662;-73
2021/03/07 10:53:04;;;;;;;9.33;5.67;;;;;;;1.88;62.92;100264.41;1720108;83;25717;-69
2021/03/07 10:55:32;;;;;;;9.50;5.30;;;;;;;1.88;62.99;100261.75;1720323;83;26450;-66
2021/03/07 10:57:59;;;;;;;12.55;5.37;;;;;;;1.88;63.06;100270.55;1720250;83;25785;-70
2021/03/07 11:00:27;;;;;;;15.72;6.15;;;;;;;1.89;63.19;100270.84;1716668;81;26330;-70
2021/03/07 11:02:55;;;;;;;18.90;9.08;;;;;;;1.91;63.31;100259.38;1738049;81;25601;-70
2021/03/07 11:05:24;;;;;;;10.58;6.53;;;;;;;1.95;63.33;100265.81;1718566;81;25619;-71
2021/03/07 11:07:51;;;;;;;11.15;6.95;;;;;;;1.94;63.23;100264.22;1716333;83;25861;-72
2021/03/07 11:10:21;;;;;;;14.75;8.35;;;;;;;1.93;63.33;100257.80;1715133;83;25726;-69
2021/03/07 11:12:49;;;;;;;10.63;6.53;;;;;;;1.91;63.40;100262.05;1713442;83;25861;-68
2021/03/07 11:15:18;;;;;;;10.95;6.40;;;;;;;1.91;63.43;100260.71;1713256;83;25723;-69
2021/03/07 11:17:46;;;;;;;13.38;7.10;;;;;;;1.91;63.50;100263.38;1713278;83;25723;-73
2021/03/07 11:20:14;;;;;;;13.55;8.33;;;;;;;1.91;63.55;100255.38;1713282;83;25927;-68
2021/03/07 11:22:43;;;;;;;12.55;6.78;;;;;;;1.92;63.61;100249.50;1713891;83;25911;-69
2021/03/07 11:25:11;;;;;;;14.03;7.00;;;;;;;1.92;63.65;100250.84;1714546;83;32979;-72
2021/03/07 11:27:38;;;;;;;13.75;6.58;;;;;;;1.93;63.62;100240.45;1710653;83;25613;-71
2021/03/07 11:30:08;;;;;;;11.20;5.90;;;;;;;1.93;63.65;100253.26;1696392;84;25796;-68
2021/03/07 11:32:36;;;;;;;14.20;6.25;;;;;;;1.93;63.65;100251.92;1712970;83;25736;-69
2021/03/07 11:35:04;;;;;;;16.80;7.05;;;;;;;1.96;63.73;100231.41;1731260;82;25648;-70
2021/03/07 11:37:31;;;;;;;11.28;6.53;;;;;;;1.98;63.74;100243.97;1731328;82;25672;-73
2021/03/07 11:39:58;;;;;;;12.82;6.40;;;;;;;1.99;63.69;100230.09;1725789;82;25689;-72
2021/03/07 11:42:28;;;;;;;12.13;6.08;;;;;;;2.03;63.72;100233.87;1721193;83;25606;-69
2021/03/07 11:44:54;;;;;;;;;;;;;;;2.04;63.60;100224.29;1723907;83;26066;-71
2021/03/07 11:47:21;;;;;;;8.83;6.05;;;;;;;2.08;63.44;100209.08;1721123;83;25740;-70
2021/03/07 11:49:48;;;;;;;11.88;5.75;;;;;;;2.09;63.38;100200.83;1721241;83;25649;-67
2021/03/07 11:52:15;;;;;;;9.35;5.15;;;;;;;2.12;63.29;100206.20;1721163;83;25683;-64
2021/03/07 11:54:42;;;;;;;13.53;6.60;;;;;;;2.10;63.26;100198.45;1709339;82;25667;-64
2021/03/07 11:57:09;;;;;;;8.18;5.90;;;;;;;2.13;63.20;100194.45;1684175;85;26419;-64
2021/03/07 11:59:35;;;;;;;8.48;5.42;;;;;;;2.16;63.27;100185.43;1687761;84;25354;-64
2021/03/07 12:02:04;;;;;;;7.70;5.50;;;;;;;2.19;62.87;100164.88;1699038;83;25613;-64
2021/03/07 12:04:30;;;;;;;9.73;5.58;;;;;;;2.24;62.43;100164.91;1688456;84;25744;-65
2021/03/07 12:06:58;;;;;;;16.12;5.83;;;;;;;2.32;62.49;100168.19;1685446;85;26265;-64